sensor_id;sensor_type;location;lat;lon;timestamp;P1;durP1;ratioP1;P2;durP2;ratioP2
56824;SDS011;42705;50.326;18.772;2023-09-19T00:06:21;13.00;;;10.00;;
56824;SDS011;42705;50.326;18.772;2023-09-19T00:11:43;12.70;;;10.30;;
56824;SDS011;42705;50.326;18.772;2023-09-19T00:17:06;13.60;;;10.10;;
56824;SDS011;42705;50.326;18.772;2023-09-19T00:22:29;10.20;;;9.10;;
56824;SDS011;42705;50.326;18.772;2023-09-19T00:27:51;11.90;;;10.50;;
56824;SDS011;42705;50.326;18.772;2023-09-19T00:33:13;13.90;;;10.50;;
56824;SDS011;42705;50.326;18.772;2023-09-19T00:38:37;14.80;;;10.80;;
56824;SDS011;42705;50.326;18.772;2023-09-19T00:43:59;16.00;;;10.70;;
56824;SDS011;42705;50.326;18.772;2023-09-19T00:49:22;16.50;;;12.00;;
56824;SDS011;42705;50.326;18.772;2023-09-19T00:54:45;15.40;;;10.50;;
56824;SDS011;42705;50.326;18.772;2023-09-19T01:00:09;11.30;;;9.70;;
56824;SDS011;42705;50.326;18.772;2023-09-19T01:05:36;12.00;;;9.40;;
56824;SDS011;42705;50.326;18.772;2023-09-19T01:10:59;14.00;;;10.40;;
56824;SDS011;42705;50.326;18.772;2023-09-19T01:16:37;14.80;;;10.60;;
56824;SDS011;42705;50.326;18.772;2023-09-19T01:22:15;15.60;;;10.40;;
56824;SDS011;42705;50.326;18.772;2023-09-19T01:34:01;11.00;;;9.80;;
56824;SDS011;42705;50.326;18.772;2023-09-19T01:39:29;14.50;;;9.70;;
56824;SDS011;42705;50.326;18.772;2023-09-19T01:44:53;12.40;;;10.10;;
56824;SDS011;42705;50.326;18.772;2023-09-19T01:50:30;14.00;;;10.50;;
56824;SDS011;42705;50.326;18.772;2023-09-19T01:55:58;12.20;;;10.40;;
56824;SDS011;42705;50.326;18.772;2023-09-19T02:01:22;11.80;;;10.50;;
56824;SDS011;42705;50.326;18.772;2023-09-19T02:06:46;12.80;;;10.90;;
56824;SDS011;42705;50.326;18.772;2023-09-19T02:12:10;12.40;;;11.00;;
56824;SDS011;42705;50.326;18.772;2023-09-19T02:17:32;26.50;;;20.50;;
56824;SDS011;42705;50.326;18.772;2023-09-19T02:22:54;14.70;;;12.70;;
56824;SDS011;42705;50.326;18.772;2023-09-19T02:28:16;16.00;;;11.80;;
56824;SDS011;42705;50.326;18.772;2023-09-19T02:33:38;12.10;;;10.20;;
56824;SDS011;42705;50.326;18.772;2023-09-19T02:39:00;14.90;;;11.50;;
56824;SDS011;42705;50.326;18.772;2023-09-19T02:44:22;17.20;;;12.20;;
56824;SDS011;42705;50.326;18.772;2023-09-19T02:49:45;15.50;;;11.00;;
56824;SDS011;42705;50.326;18.772;2023-09-19T02:55:07;12.90;;;11.30;;
56824;SDS011;42705;50.326;18.772;2023-09-19T03:00:30;15.80;;;10.60;;
56824;SDS011;42705;50.326;18.772;2023-09-19T03:05:53;15.80;;;10.70;;
56824;SDS011;42705;50.326;18.772;2023-09-19T03:11:16;14.00;;;11.40;;
56824;SDS011;42705;50.326;18.772;2023-09-19T03:16:42;13.20;;;11.90;;
56824;SDS011;42705;50.326;18.772;2023-09-19T03:22:06;14.90;;;12.10;;
56824;SDS011;42705;50.326;18.772;2023-09-19T03:27:29;14.90;;;11.50;;
56824;SDS011;42705;50.326;18.772;2023-09-19T03:32:52;14.00;;;11.30;;
56824;SDS011;42705;50.326;18.772;2023-09-19T03:38:14;15.60;;;12.10;;
56824;SDS011;42705;50.326;18.772;2023-09-19T03:43:36;15.20;;;12.00;;
56824;SDS011;42705;50.326;18.772;2023-09-19T03:48:59;16.40;;;12.50;;
56824;SDS011;42705;50.326;18.772;2023-09-19T03:54:21;18.70;;;12.60;;
56824;SDS011;42705;50.326;18.772;2023-09-19T03:59:43;15.30;;;13.10;;
56824;SDS011;42705;50.326;18.772;2023-09-19T04:05:06;16.80;;;13.10;;
56824;SDS011;42705;50.326;18.772;2023-09-19T04:10:28;17.20;;;13.70;;
56824;SDS011;42705;50.326;18.772;2023-09-19T04:15:50;18.30;;;13.80;;
56824;SDS011;42705;50.326;18.772;2023-09-19T04:21:12;17.10;;;14.00;;
56824;SDS011;42705;50.326;18.772;2023-09-19T04:26:33;19.70;;;14.20;;
56824;SDS011;42705;50.326;18.772;2023-09-19T04:31:55;19.30;;;13.70;;
56824;SDS011;42705;50.326;18.772;2023-09-19T04:37:20;22.50;;;14.40;;
56824;SDS011;42705;50.326;18.772;2023-09-19T04:42:43;19.30;;;14.20;;
56824;SDS011;42705;50.326;18.772;2023-09-19T04:48:05;17.60;;;14.20;;
56824;SDS011;42705;50.326;18.772;2023-09-19T04:53:30;21.00;;;14.80;;
56824;SDS011;42705;50.326;18.772;2023-09-19T04:58:52;22.10;;;14.70;;
56824;SDS011;42705;50.326;18.772;2023-09-19T05:04:14;18.60;;;14.60;;
56824;SDS011;42705;50.326;18.772;2023-09-19T05:09:36;19.80;;;15.20;;
56824;SDS011;42705;50.326;18.772;2023-09-19T05:14:58;17.30;;;13.70;;
56824;SDS011;42705;50.326;18.772;2023-09-19T05:20:20;16.10;;;14.00;;
56824;SDS011;42705;50.326;18.772;2023-09-19T05:25:50;21.90;;;13.90;;
56824;SDS011;42705;50.326;18.772;2023-09-19T05:31:12;17.20;;;12.80;;
56824;SDS011;42705;50.326;18.772;2023-09-19T05:36:34;17.80;;;13.10;;
56824;SDS011;42705;50.326;18.772;2023-09-19T05:41:56;16.00;;;12.70;;
56824;SDS011;42705;50.326;18.772;2023-09-19T05:52:40;13.40;;;9.20;;
56824;SDS011;42705;50.326;18.772;2023-09-19T05:58:04;12.30;;;8.00;;
56824;SDS011;42705;50.326;18.772;2023-09-19T06:03:26;9.40;;;7.00;;
56824;SDS011;42705;50.326;18.772;2023-09-19T06:08:48;9.20;;;6.00;;
56824;SDS011;42705;50.326;18.772;2023-09-19T06:14:12;12.00;;;5.90;;
56824;SDS011;42705;50.326;18.772;2023-09-19T06:19:33;7.10;;;5.70;;
56824;SDS011;42705;50.326;18.772;2023-09-19T06:24:55;10.80;;;5.50;;
56824;SDS011;42705;50.326;18.772;2023-09-19T06:30:18;9.50;;;4.80;;
56824;SDS011;42705;50.326;18.772;2023-09-19T06:35:40;5.80;;;4.30;;
56824;SDS011;42705;50.326;18.772;2023-09-19T06:41:03;4.50;;;3.60;;
56824;SDS011;42705;50.326;18.772;2023-09-19T06:46:29;6.40;;;3.90;;
56824;SDS011;42705;50.326;18.772;2023-09-19T06:51:54;4.40;;;2.70;;
56824;SDS011;42705;50.326;18.772;2023-09-19T06:57:17;8.80;;;3.00;;
56824;SDS011;42705;50.326;18.772;2023-09-19T07:02:38;6.10;;;2.70;;
56824;SDS011;42705;50.326;18.772;2023-09-19T07:08:02;2.70;;;2.30;;
56824;SDS011;42705;50.326;18.772;2023-09-19T07:18:46;4.60;;;2.90;;
56824;SDS011;42705;50.326;18.772;2023-09-19T07:24:08;6.00;;;2.90;;
56824;SDS011;42705;50.326;18.772;2023-09-19T07:29:30;4.80;;;2.70;;
56824;SDS011;42705;50.326;18.772;2023-09-19T07:34:52;5.20;;;2.30;;
56824;SDS011;42705;50.326;18.772;2023-09-19T07:40:16;4.80;;;2.00;;
56824;SDS011;42705;50.326;18.772;2023-09-19T07:45:38;4.50;;;2.50;;
56824;SDS011;42705;50.326;18.772;2023-09-19T07:51:04;4.30;;;2.10;;
56824;SDS011;42705;50.326;18.772;2023-09-19T07:56:28;4.90;;;2.30;;
56824;SDS011;42705;50.326;18.772;2023-09-19T08:01:50;3.00;;;2.00;;
56824;SDS011;42705;50.326;18.772;2023-09-19T08:07:12;4.60;;;2.50;;
56824;SDS011;42705;50.326;18.772;2023-09-19T08:12:37;3.80;;;2.30;;
56824;SDS011;42705;50.326;18.772;2023-09-19T08:18:07;3.90;;;2.60;;
56824;SDS011;42705;50.326;18.772;2023-09-19T08:23:33;4.20;;;2.60;;
56824;SDS011;42705;50.326;18.772;2023-09-19T08:28:55;2.60;;;2.30;;
56824;SDS011;42705;50.326;18.772;2023-09-19T08:34:17;5.40;;;2.80;;
56824;SDS011;42705;50.326;18.772;2023-09-19T08:39:39;7.70;;;4.50;;
56824;SDS011;42705;50.326;18.772;2023-09-19T08:45:01;8.30;;;5.00;;
56824;SDS011;42705;50.326;18.772;2023-09-19T08:50:26;9.80;;;5.30;;
56824;SDS011;42705;50.326;18.772;2023-09-19T08:55:50;9.90;;;4.70;;
56824;SDS011;42705;50.326;18.772;2023-09-19T09:01:17;7.30;;;4.00;;
56824;SDS011;42705;50.326;18.772;2023-09-19T09:06:46;9.80;;;4.20;;
56824;SDS011;42705;50.326;18.772;2023-09-19T09:12:12;8.60;;;5.10;;
56824;SDS011;42705;50.326;18.772;2023-09-19T09:17:35;5.70;;;4.60;;
56824;SDS011;42705;50.326;18.772;2023-09-19T09:22:57;10.90;;;4.90;;
56824;SDS011;42705;50.326;18.772;2023-09-19T09:28:25;8.60;;;5.00;;
56824;SDS011;42705;50.326;18.772;2023-09-19T09:33:53;10.90;;;4.60;;
56824;SDS011;42705;50.326;18.772;2023-09-19T09:39:28;7.50;;;4.10;;
56824;SDS011;42705;50.326;18.772;2023-09-19T09:45:10;9.30;;;4.80;;
56824;SDS011;42705;50.326;18.772;2023-09-19T09:50:34;8.00;;;4.60;;
56824;SDS011;42705;50.326;18.772;2023-09-19T09:56:12;9.60;;;5.20;;
56824;SDS011;42705;50.326;18.772;2023-09-19T10:01:48;6.20;;;4.10;;
56824;SDS011;42705;50.326;18.772;2023-09-19T10:07:23;8.30;;;4.40;;
56824;SDS011;42705;50.326;18.772;2023-09-19T10:18:10;6.10;;;3.30;;
56824;SDS011;42705;50.326;18.772;2023-09-19T10:23:39;6.30;;;3.00;;
56824;SDS011;42705;50.326;18.772;2023-09-19T10:29:05;3.60;;;2.70;;
56824;SDS011;42705;50.326;18.772;2023-09-19T10:34:29;6.20;;;3.00;;
56824;SDS011;42705;50.326;18.772;2023-09-19T10:39:52;3.30;;;2.80;;
56824;SDS011;42705;50.326;18.772;2023-09-19T10:45:17;3.10;;;2.70;;
56824;SDS011;42705;50.326;18.772;2023-09-19T10:50:53;4.10;;;2.90;;
56824;SDS011;42705;50.326;18.772;2023-09-19T10:56:23;3.40;;;2.80;;
56824;SDS011;42705;50.326;18.772;2023-09-19T11:01:56;5.90;;;3.10;;
56824;SDS011;42705;50.326;18.772;2023-09-19T11:07:19;3.40;;;2.90;;
56824;SDS011;42705;50.326;18.772;2023-09-19T11:29:44;4.20;;;3.00;;
56824;SDS011;42705;50.326;18.772;2023-09-19T11:35:06;5.50;;;3.50;;
56824;SDS011;42705;50.326;18.772;2023-09-19T11:40:30;5.30;;;3.10;;
56824;SDS011;42705;50.326;18.772;2023-09-19T11:51:25;4.10;;;3.10;;
56824;SDS011;42705;50.326;18.772;2023-09-19T11:56:49;3.40;;;3.10;;
56824;SDS011;42705;50.326;18.772;2023-09-19T12:02:19;4.60;;;3.10;;
56824;SDS011;42705;50.326;18.772;2023-09-19T12:08:09;5.10;;;3.00;;
56824;SDS011;42705;50.326;18.772;2023-09-19T12:18:54;4.70;;;2.70;;
56824;SDS011;42705;50.326;18.772;2023-09-19T12:24:18;4.80;;;2.90;;
56824;SDS011;42705;50.326;18.772;2023-09-19T12:29:47;4.90;;;2.90;;
56824;SDS011;42705;50.326;18.772;2023-09-19T12:35:10;4.00;;;2.40;;
56824;SDS011;42705;50.326;18.772;2023-09-19T12:40:50;3.30;;;2.30;;
56824;SDS011;42705;50.326;18.772;2023-09-19T12:46:13;4.20;;;2.00;;
56824;SDS011;42705;50.326;18.772;2023-09-19T12:51:36;2.90;;;2.10;;
56824;SDS011;42705;50.326;18.772;2023-09-19T12:56:58;2.60;;;1.90;;
56824;SDS011;42705;50.326;18.772;2023-09-19T13:07:45;4.90;;;1.70;;
56824;SDS011;42705;50.326;18.772;2023-09-19T13:13:23;3.30;;;1.60;;
56824;SDS011;42705;50.326;18.772;2023-09-19T13:18:58;5.50;;;2.20;;
56824;SDS011;42705;50.326;18.772;2023-09-19T13:29:49;2.60;;;1.50;;
56824;SDS011;42705;50.326;18.772;2023-09-19T13:35:10;3.50;;;1.70;;
56824;SDS011;42705;50.326;18.772;2023-09-19T13:40:33;2.70;;;2.00;;
56824;SDS011;42705;50.326;18.772;2023-09-19T13:45:56;2.20;;;1.90;;
56824;SDS011;42705;50.326;18.772;2023-09-19T13:51:19;3.80;;;2.00;;
56824;SDS011;42705;50.326;18.772;2023-09-19T13:56:41;2.20;;;2.00;;
56824;SDS011;42705;50.326;18.772;2023-09-19T14:02:03;3.20;;;1.70;;
56824;SDS011;42705;50.326;18.772;2023-09-19T14:07:27;3.20;;;1.70;;
56824;SDS011;42705;50.326;18.772;2023-09-19T14:12:49;3.80;;;1.40;;
56824;SDS011;42705;50.326;18.772;2023-09-19T14:18:11;3.40;;;1.20;;
56824;SDS011;42705;50.326;18.772;2023-09-19T14:23:36;3.30;;;1.10;;
56824;SDS011;42705;50.326;18.772;2023-09-19T14:29:00;2.30;;;1.10;;
56824;SDS011;42705;50.326;18.772;2023-09-19T14:34:22;2.10;;;1.00;;
56824;SDS011;42705;50.326;18.772;2023-09-19T14:39:44;3.60;;;0.70;;
56824;SDS011;42705;50.326;18.772;2023-09-19T14:45:06;2.80;;;0.90;;
56824;SDS011;42705;50.326;18.772;2023-09-19T14:50:28;4.80;;;1.00;;
56824;SDS011;42705;50.326;18.772;2023-09-19T14:55:51;0.80;;;0.70;;
56824;SDS011;42705;50.326;18.772;2023-09-19T15:01:13;1.40;;;0.70;;
56824;SDS011;42705;50.326;18.772;2023-09-19T15:06:35;1.30;;;0.90;;
56824;SDS011;42705;50.326;18.772;2023-09-19T15:11:58;1.00;;;0.60;;
56824;SDS011;42705;50.326;18.772;2023-09-19T15:22:42;2.10;;;0.60;;
56824;SDS011;42705;50.326;18.772;2023-09-19T15:33:29;1.40;;;0.80;;
56824;SDS011;42705;50.326;18.772;2023-09-19T15:44:21;1.00;;;0.80;;
56824;SDS011;42705;50.326;18.772;2023-09-19T15:49:45;2.00;;;0.90;;
56824;SDS011;42705;50.326;18.772;2023-09-19T15:55:10;2.60;;;0.90;;
56824;SDS011;42705;50.326;18.772;2023-09-19T16:00:33;2.40;;;1.30;;
56824;SDS011;42705;50.326;18.772;2023-09-19T16:05:56;2.40;;;1.00;;
56824;SDS011;42705;50.326;18.772;2023-09-19T16:11:18;1.50;;;0.70;;
56824;SDS011;42705;50.326;18.772;2023-09-19T16:16:41;2.60;;;1.10;;
56824;SDS011;42705;50.326;18.772;2023-09-19T16:22:03;8.10;;;2.30;;
56824;SDS011;42705;50.326;18.772;2023-09-19T16:27:25;4.10;;;2.00;;
56824;SDS011;42705;50.326;18.772;2023-09-19T16:32:47;3.10;;;2.10;;
56824;SDS011;42705;50.326;18.772;2023-09-19T16:38:09;6.00;;;1.90;;
56824;SDS011;42705;50.326;18.772;2023-09-19T16:43:31;6.20;;;2.10;;
56824;SDS011;42705;50.326;18.772;2023-09-19T16:48:56;5.90;;;2.10;;
56824;SDS011;42705;50.326;18.772;2023-09-19T16:54:19;7.00;;;4.80;;
56824;SDS011;42705;50.326;18.772;2023-09-19T16:59:40;6.00;;;3.20;;
56824;SDS011;42705;50.326;18.772;2023-09-19T17:05:02;8.00;;;5.60;;
56824;SDS011;42705;50.326;18.772;2023-09-19T17:10:25;10.10;;;5.30;;
56824;SDS011;42705;50.326;18.772;2023-09-19T17:21:09;6.80;;;4.20;;
56824;SDS011;42705;50.326;18.772;2023-09-19T17:26:34;7.10;;;4.50;;
56824;SDS011;42705;50.326;18.772;2023-09-19T17:31:56;5.60;;;4.20;;
56824;SDS011;42705;50.326;18.772;2023-09-19T17:37:19;5.60;;;3.70;;
56824;SDS011;42705;50.326;18.772;2023-09-19T17:42:41;7.80;;;4.10;;
56824;SDS011;42705;50.326;18.772;2023-09-19T17:48:05;6.70;;;3.40;;
56824;SDS011;42705;50.326;18.772;2023-09-19T17:53:28;5.80;;;4.30;;
56824;SDS011;42705;50.326;18.772;2023-09-19T18:04:17;9.30;;;5.50;;
56824;SDS011;42705;50.326;18.772;2023-09-19T18:09:40;10.50;;;5.80;;
56824;SDS011;42705;50.326;18.772;2023-09-19T18:15:03;8.50;;;5.50;;
56824;SDS011;42705;50.326;18.772;2023-09-19T18:20:26;9.50;;;5.30;;
56824;SDS011;42705;50.326;18.772;2023-09-19T18:25:48;8.20;;;5.60;;
56824;SDS011;42705;50.326;18.772;2023-09-19T18:31:10;7.90;;;5.20;;
56824;SDS011;42705;50.326;18.772;2023-09-19T18:36:32;7.30;;;5.40;;
56824;SDS011;42705;50.326;18.772;2023-09-19T18:41:54;9.50;;;5.70;;
56824;SDS011;42705;50.326;18.772;2023-09-19T18:47:16;7.30;;;5.30;;
56824;SDS011;42705;50.326;18.772;2023-09-19T18:52:38;9.20;;;5.10;;
56824;SDS011;42705;50.326;18.772;2023-09-19T18:58:01;12.30;;;6.20;;
56824;SDS011;42705;50.326;18.772;2023-09-19T19:03:22;10.50;;;6.30;;
56824;SDS011;42705;50.326;18.772;2023-09-19T19:08:46;10.90;;;7.50;;
56824;SDS011;42705;50.326;18.772;2023-09-19T19:14:08;12.70;;;8.20;;
56824;SDS011;42705;50.326;18.772;2023-09-19T19:19:32;12.40;;;9.10;;
56824;SDS011;42705;50.326;18.772;2023-09-19T19:24:53;14.40;;;9.50;;
56824;SDS011;42705;50.326;18.772;2023-09-19T19:30:17;12.10;;;8.70;;
56824;SDS011;42705;50.326;18.772;2023-09-19T19:35:39;11.30;;;8.80;;
56824;SDS011;42705;50.326;18.772;2023-09-19T19:41:04;11.00;;;7.60;;
56824;SDS011;42705;50.326;18.772;2023-09-19T19:46:26;10.80;;;7.40;;
56824;SDS011;42705;50.326;18.772;2023-09-19T19:51:48;9.00;;;6.50;;
56824;SDS011;42705;50.326;18.772;2023-09-19T19:57:12;8.90;;;6.10;;
56824;SDS011;42705;50.326;18.772;2023-09-19T20:02:35;9.10;;;7.00;;
56824;SDS011;42705;50.326;18.772;2023-09-19T20:07:57;9.30;;;7.10;;
56824;SDS011;42705;50.326;18.772;2023-09-19T20:13:19;8.00;;;6.50;;
56824;SDS011;42705;50.326;18.772;2023-09-19T20:18:41;9.60;;;6.50;;
56824;SDS011;42705;50.326;18.772;2023-09-19T20:24:03;8.30;;;6.90;;
56824;SDS011;42705;50.326;18.772;2023-09-19T20:29:33;11.00;;;7.30;;
56824;SDS011;42705;50.326;18.772;2023-09-19T20:34:55;10.50;;;7.90;;
56824;SDS011;42705;50.326;18.772;2023-09-19T20:40:17;9.60;;;6.90;;
56824;SDS011;42705;50.326;18.772;2023-09-19T20:45:42;10.60;;;8.20;;
56824;SDS011;42705;50.326;18.772;2023-09-19T20:51:07;11.20;;;8.50;;
56824;SDS011;42705;50.326;18.772;2023-09-19T20:56:34;10.40;;;7.90;;
56824;SDS011;42705;50.326;18.772;2023-09-19T21:01:57;10.60;;;8.50;;
56824;SDS011;42705;50.326;18.772;2023-09-19T21:07:19;9.00;;;8.00;;
56824;SDS011;42705;50.326;18.772;2023-09-19T21:12:41;12.10;;;9.00;;
56824;SDS011;42705;50.326;18.772;2023-09-19T21:18:04;10.60;;;8.40;;
56824;SDS011;42705;50.326;18.772;2023-09-19T21:23:26;9.50;;;8.20;;
56824;SDS011;42705;50.326;18.772;2023-09-19T21:28:48;12.00;;;8.50;;
56824;SDS011;42705;50.326;18.772;2023-09-19T21:34:11;10.30;;;9.10;;
56824;SDS011;42705;50.326;18.772;2023-09-19T21:39:34;13.40;;;8.90;;
56824;SDS011;42705;50.326;18.772;2023-09-19T21:44:56;16.00;;;9.00;;
56824;SDS011;42705;50.326;18.772;2023-09-19T21:50:18;12.40;;;9.20;;
56824;SDS011;42705;50.326;18.772;2023-09-19T21:55:40;12.20;;;9.50;;
56824;SDS011;42705;50.326;18.772;2023-09-19T22:01:02;13.10;;;10.70;;
56824;SDS011;42705;50.326;18.772;2023-09-19T22:06:27;14.70;;;10.10;;
56824;SDS011;42705;50.326;18.772;2023-09-19T22:11:50;14.70;;;10.30;;
56824;SDS011;42705;50.326;18.772;2023-09-19T22:17:13;17.70;;;12.30;;
56824;SDS011;42705;50.326;18.772;2023-09-19T22:22:35;16.80;;;11.80;;
56824;SDS011;42705;50.326;18.772;2023-09-19T22:27:59;14.10;;;11.60;;
56824;SDS011;42705;50.326;18.772;2023-09-19T22:33:23;14.70;;;11.50;;
56824;SDS011;42705;50.326;18.772;2023-09-19T22:44:08;15.50;;;11.30;;
56824;SDS011;42705;50.326;18.772;2023-09-19T22:49:31;13.80;;;11.30;;
56824;SDS011;42705;50.326;18.772;2023-09-19T22:54:53;18.30;;;12.40;;
56824;SDS011;42705;50.326;18.772;2023-09-19T23:00:15;17.70;;;12.70;;
56824;SDS011;42705;50.326;18.772;2023-09-19T23:05:41;15.10;;;11.40;;
56824;SDS011;42705;50.326;18.772;2023-09-19T23:11:06;16.10;;;11.50;;
56824;SDS011;42705;50.326;18.772;2023-09-19T23:16:30;14.50;;;11.80;;
56824;SDS011;42705;50.326;18.772;2023-09-19T23:21:55;16.10;;;11.30;;
56824;SDS011;42705;50.326;18.772;2023-09-19T23:27:25;14.90;;;11.90;;
56824;SDS011;42705;50.326;18.772;2023-09-19T23:32:52;17.20;;;11.20;;
56824;SDS011;42705;50.326;18.772;2023-09-19T23:38:13;17.30;;;11.90;;
56824;SDS011;42705;50.326;18.772;2023-09-19T23:43:35;18.60;;;11.20;;
56824;SDS011;42705;50.326;18.772;2023-09-19T23:48:57;15.30;;;12.00;;
56824;SDS011;42705;50.326;18.772;2023-09-19T23:54:22;13.10;;;11.20;;
56824;SDS011;42705;50.326;18.772;2023-09-19T23:59:48;14.10;;;11.10;;
